Time;durP1;ratioP1;P1;durP2;ratioP2;P2;SDS_P1;SDS_P2;PMS_P1;PMS_P2;Temp;Humidity;BMP_temperature;BMP_pressure;BME280_temperature;BME280_humidity;BME280_pressure;Samples;Min_cycle;Max_cycle;Signal;HPM_P1;HPM_P2
2023/05/10 00:00:15;;;;;;;45.05;21.52;;;;;;;13.44;100.00;100705.50;10412674;28;20038;-68
2023/05/10 00:05:15;;;;;;;46.38;21.05;;;;;;;13.45;100.00;100709.91;10379062;28;20038;-68
2023/05/10 00:10:16;;;;;;;44.88;20.85;;;;;;;13.43;100.00;100709.38;10396020;28;20382;-68
2023/05/10 00:15:16;;;;;;;46.67;21.73;;;;;;;13.39;100.00;100702.72;10395639;28;20042;-68
2023/05/10 00:20:17;;;;;;;45.45;20.65;;;;;;;13.37;100.00;100704.94;10413277;28;20068;-68
2023/05/10 00:25:17;;;;;;;48.63;22.30;;;;;;;13.26;100.00;100697.75;10413824;28;20033;-68
2023/05/10 00:30:18;;;;;;;53.05;23.25;;;;;;;13.27;100.00;100694.72;10411728;28;20049;-68
2023/05/10 00:35:19;;;;;;;33.20;17.35;;;;;;;13.24;100.00;100692.47;10394114;28;20075;-69
2023/05/10 00:40:20;;;;;;;22.45;12.50;;;;;;;13.17;100.00;100699.38;10411002;28;20069;-69
2023/05/10 00:45:21;;;;;;;13.30;8.82;;;;;;;12.91;100.00;100702.13;10394496;28;20062;-69
2023/05/10 00:50:22;;;;;;;10.98;7.82;;;;;;;12.71;100.00;100695.47;10412935;28;20037;-69
2023/05/10 00:55:23;;;;;;;11.60;8.95;;;;;;;12.60;100.00;100691.03;10362019;28;20034;-69
2023/05/10 01:00:23;;;;;;;17.52;11.43;;;;;;;12.12;100.00;100635.13;10391865;28;20029;-69
2023/05/10 01:05:24;;;;;;;21.42;13.10;;;;;;;12.47;100.00;100686.03;10356017;28;20034;-69
2023/05/10 01:10:24;;;;;;;21.48;13.43;;;;;;;12.37;100.00;100684.06;10353208;28;20034;-69
2023/05/10 01:15:25;;;;;;;26.58;15.35;;;;;;;12.37;100.00;100688.75;10374467;28;20045;-70
2023/05/10 01:20:25;;;;;;;29.80;16.63;;;;;;;12.28;100.00;100692.03;10378158;28;20034;-69
2023/05/10 01:25:34;;;;;;;29.52;16.85;;;;;;;12.22;100.00;100684.00;10386551;28;20123;-67
2023/05/10 01:31:03;;;;;;;28.60;16.30;;;;;;;12.23;100.00;100692.00;10418904;28;20509;-69
2023/05/10 01:36:26;;;;;;;27.42;15.73;;;;;;;12.24;100.00;100693.69;10401178;28;20048;-69
2023/05/10 01:42:05;;;;;;;35.80;17.33;;;;;;;12.23;100.00;100702.22;10406638;28;20046;-69
2023/05/10 01:47:09;;;;;;;32.67;17.55;;;;;;;12.24;100.00;100693.69;10313544;28;20041;-68
2023/05/10 01:52:12;;;;;;;35.15;16.77;;;;;;;12.14;100.00;100685.34;10400818;28;20054;-69
2023/05/10 01:57:13;;;;;;;35.88;16.63;;;;;;;12.02;100.00;100663.50;10400494;28;20049;-69
2023/05/10 02:02:14;;;;;;;38.28;17.88;;;;;;;12.16;100.00;100691.44;10384310;28;20065;-69
2023/05/10 02:07:15;;;;;;;32.33;15.73;;;;;;;12.16;100.00;100688.69;10418258;28;20044;-70
2023/05/10 02:12:15;;;;;;;38.70;17.05;;;;;;;12.14;100.00;100682.59;10399764;28;20048;-69
2023/05/10 02:17:16;;;;;;;30.15;14.63;;;;;;;12.08;100.00;100683.66;10417792;28;20040;-70
2023/05/10 02:22:16;;;;;;;33.65;16.10;;;;;;;12.06;100.00;100686.69;10396295;28;20042;-69
2023/05/10 02:27:17;;;;;;;31.52;15.88;;;;;;;11.99;100.00;100679.75;10361319;28;20042;-70
2023/05/10 02:32:17;;;;;;;36.92;15.38;;;;;;;12.10;100.00;100698.03;10342277;28;20030;-69
2023/05/10 02:37:21;;;;;;;34.47;16.35;;;;;;;12.11;100.00;100694.16;10356445;28;20066;-67
2023/05/10 02:42:27;;;;;;;30.92;15.18;;;;;;;12.05;100.00;100692.47;10359137;28;20475;-69
2023/05/10 02:47:31;;;;;;;33.72;14.77;;;;;;;12.04;100.00;100683.38;10386363;28;20511;-70
2023/05/10 02:52:39;;;;;;;35.88;16.75;;;;;;;12.14;100.00;100693.63;10398566;28;20126;-70
2023/05/10 02:57:43;;;;;;;35.75;16.23;;;;;;;12.11;100.00;100694.16;10392827;28;20046;-70
2023/05/10 03:02:43;;;;;;;33.78;14.80;;;;;;;12.10;100.00;100692.50;10381663;28;20048;-70
2023/05/10 03:07:44;;;;;;;34.65;15.18;;;;;;;12.05;100.00;100700.75;10398495;28;20044;-70
2023/05/10 03:13:13;;;;;;;36.08;15.93;;;;;;;12.01;100.00;100683.06;10382230;28;20101;-70
2023/05/10 03:18:18;;;;;;;32.20;15.23;;;;;;;11.94;100.00;100690.78;10381145;28;20037;-69
2023/05/10 03:23:31;;;;;;;33.20;15.32;;;;;;;11.84;100.00;100695.09;10395567;28;20053;-70
2023/05/10 03:28:31;;;;;;;39.38;15.82;;;;;;;11.79;100.00;100692.31;10411397;28;20441;-69
2023/05/10 03:33:32;;;;;;;36.80;16.20;;;;;;;11.76;100.00;100690.09;10415255;28;20054;-70
2023/05/10 03:38:32;;;;;;;38.72;16.65;;;;;;;11.79;100.00;100694.25;10396054;28;20053;-70
2023/05/10 03:43:33;;;;;;;45.38;17.35;;;;;;;11.78;100.00;100698.94;10396298;28;20033;-69
2023/05/10 03:48:33;;;;;;;38.80;17.15;;;;;;;11.82;100.00;100704.75;10413603;28;20045;-69
2023/05/10 03:53:34;;;;;;;37.45;16.95;;;;;;;11.74;100.00;100689.53;10411733;28;20061;-70
2023/05/10 03:58:34;;;;;;;47.63;18.38;;;;;;;11.82;100.00;100702.81;10394339;28;20045;-68
2023/05/10 04:03:36;;;;;;;43.25;18.63;;;;;;;11.87;100.00;100704.78;10397044;28;20076;-69
2023/05/10 04:08:36;;;;;;;49.80;21.25;;;;;;;11.89;100.00;100705.38;10413674;28;20033;-69
2023/05/10 04:13:37;;;;;;;49.22;19.65;;;;;;;11.90;100.00;100707.84;10377327;28;20041;-69
2023/05/10 04:18:39;;;;;;;49.22;20.02;;;;;;;11.91;100.00;100705.94;10393847;28;20033;-69
2023/05/10 04:23:40;;;;;;;51.00;21.77;;;;;;;11.88;100.00;100700.91;10392396;28;20411;-70
2023/05/10 04:28:40;;;;;;;54.28;21.80;;;;;;;11.96;100.00;100702.38;10378633;28;20041;-69
2023/05/10 04:33:41;;;;;;;50.85;21.35;;;;;;;11.86;100.00;100687.38;10395010;28;20111;-69
2023/05/10 04:38:42;;;;;;;52.95;21.75;;;;;;;11.98;100.00;100702.94;10394463;28;20037;-70
2023/05/10 04:43:42;;;;;;;56.33;22.52;;;;;;;12.00;100.00;100709.00;10393140;28;20403;-70
2023/05/10 04:48:43;;;;;;;50.95;21.00;;;;;;;12.03;100.00;100714.84;10414075;28;20030;-70
2023/05/10 04:53:43;;;;;;;50.20;19.95;;;;;;;12.02;100.00;100710.41;10416627;28;20492;-70
2023/05/10 04:58:44;;;;;;;42.13;20.42;;;;;;;11.98;100.00;100711.22;10421004;28;20590;-68
2023/05/10 05:03:44;;;;;;;38.75;18.42;;;;;;;12.01;100.00;100716.19;10402093;28;20041;-69
2023/05/10 05:08:45;;;;;;;35.25;17.83;;;;;;;11.97;100.00;100717.81;10418478;28;20152;-70
2023/05/10 05:13:45;;;;;;;36.13;17.88;;;;;;;11.87;100.00;100711.13;10385172;28;20044;-69
2023/05/10 05:18:46;;;;;;;31.15;16.05;;;;;;;11.99;100.00;100724.75;10384871;28;20057;-70
2023/05/10 05:23:47;;;;;;;28.58;16.33;;;;;;;12.05;100.00;100722.81;10399260;28;20489;-70
2023/05/10 05:28:48;;;;;;;30.83;16.48;;;;;;;12.08;100.00;100727.81;10368050;28;20092;-69
2023/05/10 05:33:49;;;;;;;27.73;15.10;;;;;;;11.90;100.00;100727.16;10418552;28;20077;-69
2023/05/10 05:38:49;;;;;;;26.75;15.27;;;;;;;11.90;100.00;100732.69;10417274;28;20049;-70
2023/05/10 05:43:50;;;;;;;30.10;14.63;;;;;;;11.96;100.00;100729.97;10400472;28;20049;-69
2023/05/10 05:48:50;;;;;;;31.80;16.13;;;;;;;11.93;100.00;100736.84;10400817;28;20056;-70
2023/05/10 05:53:51;;;;;;;22.65;12.93;;;;;;;11.86;100.00;100742.56;10417125;28;20049;-68
2023/05/10 05:58:51;;;;;;;21.58;12.43;;;;;;;11.88;100.00;100756.94;10417802;28;20068;-70
2023/05/10 06:03:52;;;;;;;17.67;10.38;;;;;;;11.77;100.00;100752.44;10400727;28;20042;-71
2023/05/10 06:08:53;;;;;;;16.10;9.68;;;;;;;11.86;100.00;100763.78;10417202;28;20045;-70
2023/05/10 06:13:53;;;;;;;13.80;8.35;;;;;;;11.86;100.00;100764.63;10416416;28;20072;-69
2023/05/10 06:18:54;;;;;;;13.73;8.18;;;;;;;11.85;100.00;100767.66;10382012;28;20115;-70
2023/05/10 06:23:54;;;;;;;12.90;7.97;;;;;;;11.90;100.00;100771.28;10413323;28;20076;-70
2023/05/10 06:28:55;;;;;;;11.45;7.05;;;;;;;11.98;100.00;100778.25;10383088;28;20053;-71
2023/05/10 06:33:55;;;;;;;10.52;6.53;;;;;;;11.95;100.00;100783.47;10416390;28;20045;-70
2023/05/10 06:38:56;;;;;;;7.38;5.47;;;;;;;11.89;100.00;100790.91;10416392;28;20038;-70
2023/05/10 06:43:56;;;;;;;7.05;5.78;;;;;;;11.96;100.00;100785.13;10415490;28;20044;-70
2023/05/10 06:48:57;;;;;;;6.93;5.30;;;;;;;12.04;100.00;100792.91;10414563;28;20041;-71
2023/05/10 06:53:57;;;;;;;6.82;4.05;;;;;;;11.92;100.00;100790.34;10413256;28;20049;-70
2023/05/10 06:58:58;;;;;;;4.82;3.90;;;;;;;12.05;100.00;100800.94;10397614;28;20041;-71
2023/05/10 07:03:58;;;;;;;5.80;3.80;;;;;;;12.06;100.00;100799.00;10415296;28;20413;-72
2023/05/10 07:08:59;;;;;;;3.83;3.08;;;;;;;12.05;100.00;100794.56;10396257;28;20448;-72
2023/05/10 07:13:59;;;;;;;5.30;3.63;;;;;;;12.17;100.00;100802.66;10396233;28;20152;-72
2023/05/10 07:19:00;;;;;;;4.20;3.30;;;;;;;12.16;100.00;100818.38;10414464;28;20042;-71
2023/05/10 07:24:00;;;;;;;3.40;2.60;;;;;;;12.19;100.00;100817.00;10409268;28;20025;-71
2023/05/10 07:29:01;;;;;;;2.40;1.80;;;;;;;12.11;100.00;100821.09;10412801;28;20053;-71
2023/05/10 07:34:02;;;;;;;2.92;1.83;;;;;;;12.13;100.00;100829.13;10378572;28;20493;-71
2023/05/10 07:39:02;;;;;;;2.13;1.40;;;;;;;12.14;100.00;100828.84;10412553;28;20038;-71
2023/05/10 07:44:03;;;;;;;8.77;2.88;;;;;;;12.02;100.00;100833.75;10413140;28;20041;-71
2023/05/10 07:49:04;;;;;;;6.90;3.17;;;;;;;11.99;100.00;100856.34;10413296;28;20046;-72
2023/05/10 07:54:04;;;;;;;6.57;3.60;;;;;;;11.99;100.00;100853.56;10394052;28;20037;-71
2023/05/10 07:59:06;;;;;;;5.85;3.92;;;;;;;12.06;100.00;100859.72;10413210;28;20034;-71
2023/05/10 08:04:07;;;;;;;4.07;2.50;;;;;;;12.09;100.00;100864.69;10411998;28;20505;-71
2023/05/10 08:09:08;;;;;;;5.63;2.78;;;;;;;12.08;100.00;100860.28;10412155;28;20041;-71
2023/05/10 08:14:08;;;;;;;5.45;3.00;;;;;;;12.07;100.00;100869.63;10394256;28;20176;-70
2023/05/10 08:19:09;;;;;;;4.18;2.42;;;;;;;12.09;100.00;100879.34;10411849;28;20037;-70
2023/05/10 08:24:09;;;;;;;4.72;2.53;;;;;;;12.22;100.00;100878.03;10392621;28;20119;-70
2023/05/10 08:29:10;;;;;;;6.43;3.17;;;;;;;12.46;100.00;100889.53;10413765;28;20524;-70
2023/05/10 08:34:10;;;;;;;8.20;4.00;;;;;;;12.54;100.00;100884.59;10413147;28;20033;-71
2023/05/10 08:39:11;;;;;;;8.73;5.13;;;;;;;12.49;100.00;100896.44;10412172;28;20053;-70
2023/05/10 08:44:11;;;;;;;8.73;5.85;;;;;;;12.24;100.00;100883.31;10377188;28;20034;-71
2023/05/10 08:49:13;;;;;;;8.63;5.88;;;;;;;12.33;100.00;100901.03;10357013;28;20057;-71
2023/05/10 08:54:13;;;;;;;7.63;5.63;;;;;;;12.35;100.00;100909.06;10385873;28;20245;-70
2023/05/10 08:59:15;;;;;;;7.97;5.85;;;;;;;12.44;100.00;100921.25;10410662;28;20034;-70
2023/05/10 09:04:15;;;;;;;9.25;5.95;;;;;;;12.45;100.00;100920.16;10412375;28;20036;-71
2023/05/10 09:09:17;;;;;;;8.35;5.63;;;;;;;12.41;100.00;100930.91;10377106;28;20045;-72
2023/05/10 09:14:17;;;;;;;8.27;6.03;;;;;;;12.37;100.00;100937.22;10409347;28;20053;-72
2023/05/10 09:19:18;;;;;;;6.72;5.50;;;;;;;12.29;100.00;100942.13;10376785;28;20033;-73
2023/05/10 09:24:18;;;;;;;9.95;6.65;;;;;;;12.33;100.00;100936.91;10393632;28;20041;-72
2023/05/10 09:29:19;;;;;;;7.65;6.45;;;;;;;12.49;100.00;100955.25;10394374;28;20049;-72
2023/05/10 09:34:28;;;;;;;9.75;8.18;;;;;;;12.57;100.00;100967.75;10393445;28;20042;-72
2023/05/10 09:39:38;;;;;;;8.98;8.07;;;;;;;12.57;100.00;100972.41;10400381;28;20064;-71
2023/05/10 09:44:40;;;;;;;10.18;8.30;;;;;;;12.51;100.00;100969.63;10417649;28;20063;-72
2023/05/10 09:49:41;;;;;;;9.15;6.88;;;;;;;12.77;100.00;100975.31;10384949;28;20109;-71
2023/05/10 09:54:45;;;;;;;6.95;5.88;;;;;;;12.83;100.00;100971.50;10400578;28;20049;-70
2023/05/10 09:59:46;;;;;;;8.90;5.40;;;;;;;12.78;100.00;100976.19;10383886;28;20038;-70
2023/05/10 10:04:48;;;;;;;5.03;4.30;;;;;;;12.85;100.00;100985.03;10368078;28;20378;-71
2023/05/10 10:09:49;;;;;;;7.13;5.20;;;;;;;12.88;100.00;100984.53;10415884;28;20041;-70
2023/05/10 10:14:50;;;;;;;5.95;5.35;;;;;;;13.13;100.00;100997.66;10380073;28;20053;-70
2023/05/10 10:19:50;;;;;;;5.88;4.60;;;;;;;13.25;100.00;100989.13;10399185;28;20048;-70
2023/05/10 10:24:51;;;;;;;4.47;3.47;;;;;;;13.63;100.00;100993.47;10382485;28;20053;-70
2023/05/10 10:30:10;;;;;;;3.42;3.00;;;;;;;13.66;100.00;100992.06;10399676;28;20050;-70
2023/05/10 10:35:11;;;;;;;3.72;3.20;;;;;;;13.97;100.00;100983.84;10417231;28;20042;-70
2023/05/10 10:40:31;;;;;;;5.88;3.00;;;;;;;14.61;100.00;101005.50;10382562;28;20041;-70
2023/05/10 10:45:31;;;;;;;3.10;1.85;;;;;;;14.61;100.00;100999.97;10393381;28;20038;-70
2023/05/10 10:50:32;;;;;;;4.25;2.08;;;;;;;14.56;100.00;101002.75;10414078;28;20041;-69
2023/05/10 10:55:32;;;;;;;3.05;2.75;;;;;;;14.23;100.00;100999.38;10362062;28;20099;-70
2023/05/10 11:00:36;;;;;;;6.25;3.42;;;;;;;14.24;100.00;101001.06;10381322;28;20044;-70
2023/05/10 11:05:43;;;;;;;5.43;3.45;;;;;;;14.41;100.00;101013.81;10398094;28;20048;-71
2023/05/10 11:11:16;;;;;;;3.90;3.17;;;;;;;14.80;100.00;101013.25;10415593;28;20033;-70
2023/05/10 11:16:18;;;;;;;3.97;3.28;;;;;;;14.59;100.00;101023.53;10380470;28;20404;-71
2023/05/10 11:21:18;;;;;;;4.10;3.65;;;;;;;14.56;100.00;101019.38;10397253;28;20525;-70
2023/05/10 11:26:22;;;;;;;5.90;4.13;;;;;;;14.76;100.00;101026.00;10395838;28;20045;-70
2023/05/10 11:31:23;;;;;;;3.95;2.97;;;;;;;15.04;100.00;101025.41;10413784;28;20057;-70
2023/05/10 11:36:25;;;;;;;3.63;3.15;;;;;;;15.37;100.00;101028.63;10395932;28;20037;-70
2023/05/10 11:41:29;;;;;;;5.88;2.97;;;;;;;15.69;100.00;101024.63;10397112;28;20436;-69
2023/05/10 11:46:30;;;;;;;3.08;2.33;;;;;;;15.71;100.00;101030.72;10413790;28;20030;-70
2023/05/10 11:51:39;;;;;;;3.03;1.88;;;;;;;15.56;100.00;101039.09;10412438;28;20048;-70
2023/05/10 11:56:39;;;;;;;6.25;2.25;;;;;;;15.41;100.00;101042.78;10395403;28;20040;-69
2023/05/10 12:01:41;;;;;;;4.65;2.00;;;;;;;14.92;100.00;101034.03;10412798;28;20045;-70
2023/05/10 12:06:41;;;;;;;4.28;1.95;;;;;;;14.93;100.00;101059.81;10363431;28;20048;-70
2023/05/10 12:11:42;;;;;;;2.13;1.80;;;;;;;14.66;100.00;101062.88;10380091;28;20056;-69
2023/05/10 12:16:42;;;;;;;3.67;2.15;;;;;;;14.54;100.00;101065.88;10413728;28;20100;-70
2023/05/10 12:21:43;;;;;;;3.03;2.17;;;;;;;14.56;100.00;101073.97;10376297;28;20045;-70
2023/05/10 12:26:45;;;;;;;3.92;2.55;;;;;;;14.72;100.00;101078.41;10378430;28;20053;-70
2023/05/10 12:31:56;;;;;;;4.53;2.58;;;;;;;14.96;100.00;101075.88;10362384;28;20042;-70
2023/05/10 12:36:57;;;;;;;3.60;2.42;;;;;;;15.01;100.00;101075.88;10395169;28;20041;-70
2023/05/10 12:41:57;;;;;;;4.25;3.05;;;;;;;15.01;100.00;101089.75;10413781;28;20034;-69
2023/05/10 12:46:57;;;;;;;4.93;3.90;;;;;;;14.50;100.00;101104.38;10395473;28;20052;-70
2023/05/10 12:51:58;;;;;;;6.90;4.78;;;;;;;14.25;100.00;101102.41;10411159;28;20052;-70
2023/05/10 12:56:58;;;;;;;9.30;5.97;;;;;;;14.43;100.00;101108.53;10410511;28;20052;-70
2023/05/10 13:01:59;;;;;;;8.85;5.78;;;;;;;14.54;100.00;101105.50;10393445;28;20029;-71
2023/05/10 13:06:59;;;;;;;9.32;5.63;;;;;;;14.42;100.00;101112.41;10410677;28;20026;-71
2023/05/10 13:12:00;;;;;;;8.55;5.70;;;;;;;14.46;100.00;101119.06;10386501;28;20048;-70
2023/05/10 13:17:00;;;;;;;9.10;5.85;;;;;;;14.68;100.00;101113.31;10385958;28;20037;-71
2023/05/10 13:22:01;;;;;;;10.48;5.63;;;;;;;15.11;100.00;101111.91;10386683;28;20047;-70
2023/05/10 13:27:02;;;;;;;10.68;6.15;;;;;;;15.42;100.00;101111.88;10348282;28;20259;-70
2023/05/10 13:32:02;;;;;;;9.02;6.45;;;;;;;15.76;100.00;101116.78;10409850;28;20057;-70
2023/05/10 13:37:03;;;;;;;9.77;5.32;;;;;;;16.17;100.00;101113.81;10387800;28;20095;-70
2023/05/10 13:42:04;;;;;;;7.22;5.07;;;;;;;16.23;100.00;101107.13;10384373;28;20037;-71
2023/05/10 13:47:05;;;;;;;7.60;4.10;;;;;;;16.30;100.00;101124.28;10368777;28;20076;-71
2023/05/10 13:52:09;;;;;;;8.63;5.32;;;;;;;15.86;100.00;101116.72;10418922;28;20101;-72
2023/05/10 13:57:12;;;;;;;6.35;4.65;;;;;;;15.49;100.00;101119.88;10414522;28;20052;-71
2023/05/10 14:02:13;;;;;;;9.00;4.80;;;;;;;15.73;100.00;101120.97;10398648;28;20061;-70
2023/05/10 14:07:13;;;;;;;9.20;5.40;;;;;;;16.28;100.00;101120.97;10401793;28;20042;-71
2023/05/10 14:12:14;;;;;;;8.82;4.97;;;;;;;16.62;100.00;101114.66;10392754;28;20038;-71
2023/05/10 14:17:15;;;;;;;9.52;5.35;;;;;;;16.78;100.00;101115.34;10416414;28;20041;-71
2023/05/10 14:22:15;;;;;;;8.70;5.15;;;;;;;17.22;100.00;101111.66;10397769;28;20044;-72
2023/05/10 14:27:16;;;;;;;6.38;4.60;;;;;;;17.25;100.00;101099.09;10381955;28;20378;-72
2023/05/10 14:32:16;;;;;;;7.07;4.60;;;;;;;16.94;100.00;101099.41;10398465;28;20061;-72
2023/05/10 14:37:17;;;;;;;7.85;4.10;;;;;;;16.84;100.00;101105.88;10366276;28;20048;-71
2023/05/10 14:42:17;;;;;;;7.97;4.25;;;;;;;16.75;100.00;101113.97;10382619;28;20034;-72
2023/05/10 14:47:18;;;;;;;8.32;5.35;;;;;;;16.40;100.00;101109.50;10415611;28;20034;-69
2023/05/10 14:52:18;;;;;;;10.68;5.00;;;;;;;15.98;100.00;101063.66;10381602;28;20041;-72
2023/05/10 14:57:19;;;;;;;10.10;5.53;;;;;;;16.30;100.00;101117.91;10364819;28;20041;-72
2023/05/10 15:02:19;;;;;;;10.25;6.22;;;;;;;16.39;100.00;101116.19;10374482;28;20033;-71
2023/05/10 15:07:20;;;;;;;7.75;5.45;;;;;;;16.50;100.00;101128.06;10381851;28;20042;-72
2023/05/10 15:12:21;;;;;;;6.88;4.95;;;;;;;16.18;100.00;101093.25;10414690;28;20071;-72
2023/05/10 15:17:21;;;;;;;8.18;5.68;;;;;;;16.47;100.00;101123.91;10393948;28;20041;-72
2023/05/10 15:22:22;;;;;;;8.32;5.35;;;;;;;16.12;100.00;101124.94;10396403;28;20119;-73
2023/05/10 15:27:22;;;;;;;7.18;5.18;;;;;;;16.08;100.00;101141.38;10396294;28;20041;-73
2023/05/10 15:32:23;;;;;;;6.75;4.85;;;;;;;16.26;100.00;101150.16;10393763;28;20109;-72
2023/05/10 15:37:24;;;;;;;7.10;5.13;;;;;;;16.38;100.00;101149.81;10397170;28;20075;-72
2023/05/10 15:42:24;;;;;;;9.13;4.88;;;;;;;16.53;100.00;101139.41;10413575;28;20049;-73
2023/05/10 15:47:25;;;;;;;9.02;5.35;;;;;;;16.66;100.00;101151.00;10379890;28;20083;-73
2023/05/10 15:52:26;;;;;;;11.23;4.78;;;;;;;16.80;100.00;101159.53;10363977;28;20108;-73
2023/05/10 15:57:26;;;;;;;9.93;5.70;;;;;;;16.81;100.00;101150.13;10361676;28;20037;-73
2023/05/10 16:02:27;;;;;;;9.32;5.85;;;;;;;16.69;100.00;101169.91;10378957;28;20037;-73
2023/05/10 16:07:27;;;;;;;8.48;5.93;;;;;;;16.50;100.00;101172.53;10394660;28;20038;-73
2023/05/10 16:12:29;;;;;;;8.85;6.45;;;;;;;16.47;100.00;101178.66;10378397;28;20033;-73
2023/05/10 16:17:29;;;;;;;7.85;5.95;;;;;;;16.52;100.00;101184.19;10392930;28;20104;-72
2023/05/10 16:22:30;;;;;;;9.75;6.65;;;;;;;16.63;100.00;101183.00;10376546;28;20383;-73
2023/05/10 16:27:32;;;;;;;7.97;5.78;;;;;;;16.30;100.00;101179.84;10366469;28;20532;-73
2023/05/10 16:32:33;;;;;;;12.85;7.10;;;;;;;15.91;100.00;101194.44;10376104;28;20440;-71
2023/05/10 16:37:33;;;;;;;17.00;8.50;;;;;;;15.42;100.00;101214.50;10393840;28;20056;-71
2023/05/10 16:42:34;;;;;;;12.95;9.15;;;;;;;15.27;100.00;101207.00;10410930;28;20041;-72
2023/05/10 16:47:35;;;;;;;15.25;9.85;;;;;;;15.42;100.00;101210.88;10394928;28;20053;-72
2023/05/10 16:52:36;;;;;;;18.88;11.00;;;;;;;15.26;100.00;101207.31;10344111;28;20069;-73
2023/05/10 16:57:36;;;;;;;16.42;10.18;;;;;;;15.10;100.00;101220.34;10352870;28;20030;-72
2023/05/10 17:02:37;;;;;;;17.00;10.60;;;;;;;15.03;100.00;101223.38;10321928;28;20045;-72
2023/05/10 17:07:38;;;;;;;17.92;11.35;;;;;;;14.97;100.00;101230.03;10353993;28;20029;-72
2023/05/10 17:12:39;;;;;;;17.63;10.88;;;;;;;14.93;100.00;101229.75;10372824;28;20040;-72
2023/05/10 17:17:39;;;;;;;21.65;13.15;;;;;;;14.74;100.00;101231.38;10393086;28;20048;-73
2023/05/10 17:22:40;;;;;;;21.90;13.15;;;;;;;14.58;100.00;101255.44;10375877;28;20033;-73
2023/05/10 17:27:41;;;;;;;23.55;12.93;;;;;;;14.53;100.00;101252.59;10391892;28;20053;-72
2023/05/10 17:32:42;;;;;;;24.58;13.63;;;;;;;14.28;100.00;101251.41;10375878;28;20034;-73
2023/05/10 17:37:43;;;;;;;19.55;12.77;;;;;;;14.16;100.00;101259.13;10359594;28;20033;-72
2023/05/10 17:42:44;;;;;;;22.65;12.75;;;;;;;14.09;100.00;101266.81;10409774;28;20034;-73
2023/05/10 17:47:45;;;;;;;18.95;12.25;;;;;;;14.06;100.00;101268.19;10392123;28;20060;-69
2023/05/10 17:52:45;;;;;;;19.08;12.20;;;;;;;14.21;100.00;101255.53;10374757;28;20126;-73
2023/05/10 17:57:46;;;;;;;16.85;12.25;;;;;;;14.33;100.00;101270.81;10396195;28;20101;-73
2023/05/10 18:02:46;;;;;;;18.15;12.05;;;;;;;14.25;100.00;101274.09;10398788;28;20091;-72
2023/05/10 18:07:47;;;;;;;14.43;10.52;;;;;;;14.09;100.00;101280.66;10382696;28;20065;-71
2023/05/10 18:12:49;;;;;;;13.18;9.30;;;;;;;13.93;100.00;101265.88;10403888;28;20044;-72
2023/05/10 18:17:49;;;;;;;13.63;9.75;;;;;;;13.95;100.00;101279.44;10394237;28;20045;-72
2023/05/10 18:22:50;;;;;;;13.80;9.38;;;;;;;13.95;100.00;101290.53;10365610;28;20405;-72
2023/05/10 18:27:51;;;;;;;17.02;10.13;;;;;;;13.90;100.00;101300.47;10382001;28;20042;-72
2023/05/10 18:32:52;;;;;;;13.82;9.98;;;;;;;13.77;100.00;101303.69;10382625;28;20512;-72
2023/05/10 18:37:53;;;;;;;16.60;9.85;;;;;;;13.73;100.00;101310.88;10398566;28;20067;-72
2023/05/10 18:42:53;;;;;;;12.45;8.68;;;;;;;13.71;100.00;101324.13;10362470;28;20029;-73
2023/05/10 18:47:54;;;;;;;15.52;9.48;;;;;;;13.58;100.00;101308.81;10365456;28;20049;-72
2023/05/10 18:52:55;;;;;;;14.30;8.68;;;;;;;13.52;100.00;101327.28;10397738;28;20099;-71
2023/05/10 18:57:55;;;;;;;11.27;8.90;;;;;;;13.43;100.00;101334.38;10380476;28;20049;-72
2023/05/10 19:02:56;;;;;;;17.27;10.90;;;;;;;13.28;100.00;101325.94;10397576;28;20501;-72
2023/05/10 19:07:57;;;;;;;12.00;8.73;;;;;;;13.11;100.00;101328.81;10381216;28;20049;-72
2023/05/10 19:12:57;;;;;;;12.50;9.32;;;;;;;13.07;100.00;101347.81;10414853;28;20040;-72
2023/05/10 19:17:58;;;;;;;11.57;8.32;;;;;;;12.96;100.00;101353.50;10359736;28;20389;-73
2023/05/10 19:22:58;;;;;;;15.15;8.57;;;;;;;12.74;100.00;101336.94;10350250;28;20080;-74
2023/05/10 19:27:59;;;;;;;13.80;8.73;;;;;;;12.74;100.00;101367.34;10382216;28;21401;-72
2023/05/10 19:33:02;;;;;;;10.55;7.40;;;;;;;12.60;100.00;101370.47;10394962;28;20037;-73
2023/05/10 19:38:03;;;;;;;9.30;6.68;;;;;;;12.45;100.00;101362.81;10388530;28;20037;-73
2023/05/10 19:43:03;;;;;;;12.63;7.20;;;;;;;12.30;100.00;101359.84;10380096;28;20072;-74
2023/05/10 19:48:04;;;;;;;14.77;9.15;;;;;;;12.24;100.00;101367.22;10362147;28;20089;-73
2023/05/10 19:53:05;;;;;;;12.43;9.20;;;;;;;11.98;100.00;101370.66;10362173;28;20064;-73
2023/05/10 19:58:05;;;;;;;17.35;11.73;;;;;;;11.86;100.00;101374.28;10375829;28;20041;-74
2023/05/10 20:03:06;;;;;;;17.48;11.15;;;;;;;11.67;100.00;101378.38;10382837;28;20041;-74
2023/05/10 20:08:06;;;;;;;15.65;10.73;;;;;;;11.69;100.00;101387.25;10358103;28;20461;-73
2023/05/10 20:13:07;;;;;;;18.50;10.63;;;;;;;11.61;100.00;101382.16;10394449;28;20037;-73
2023/05/10 20:18:07;;;;;;;17.38;10.90;;;;;;;11.45;100.00;101390.16;10393453;28;20033;-74
2023/05/10 20:23:08;;;;;;;18.80;11.27;;;;;;;11.26;100.00;101394.19;10377084;28;20041;-74
2023/05/10 20:28:09;;;;;;;16.85;10.75;;;;;;;11.23;100.00;101398.28;10378571;28;20099;-74
2023/05/10 20:33:10;;;;;;;20.25;12.55;;;;;;;11.24;100.00;101405.44;10361883;28;20037;-74
2023/05/10 20:38:10;;;;;;;20.00;11.63;;;;;;;11.30;100.00;101393.44;10377188;28;20041;-73
2023/05/10 20:43:11;;;;;;;21.23;10.93;;;;;;;10.87;100.00;101327.84;10377291;28;20045;-73
2023/05/10 20:48:12;;;;;;;18.05;11.27;;;;;;;11.40;100.00;101406.59;10392573;28;20063;-74
2023/05/10 20:53:13;;;;;;;24.55;12.73;;;;;;;11.39;100.00;101399.41;10359262;28;20048;-73
2023/05/10 20:58:14;;;;;;;26.67;14.35;;;;;;;11.40;100.00;101401.06;10380001;28;20049;-73
2023/05/10 21:03:14;;;;;;;30.35;16.15;;;;;;;11.39;100.00;101404.94;10360722;28;20046;-74
2023/05/10 21:08:14;;;;;;;31.10;17.60;;;;;;;11.32;100.00;101412.50;10379793;28;20061;-72
2023/05/10 21:13:15;;;;;;;30.95;18.25;;;;;;;11.26;100.00;101406.03;10347668;28;20064;-70
2023/05/10 21:18:16;;;;;;;29.77;15.98;;;;;;;11.34;100.00;101401.22;10385974;28;20034;-73
2023/05/10 21:23:16;;;;;;;30.05;16.17;;;;;;;11.31;100.00;101410.84;10391412;28;20033;-73
2023/05/10 21:28:17;;;;;;;30.73;15.80;;;;;;;11.37;100.00;101420.03;10349888;28;20052;-72
2023/05/10 21:33:17;;;;;;;33.50;17.25;;;;;;;11.35;100.00;101420.28;10373816;28;20033;-73
2023/05/10 21:38:18;;;;;;;30.27;16.50;;;;;;;11.27;100.00;101423.44;10366553;28;20452;-73
2023/05/10 21:43:18;;;;;;;31.38;17.05;;;;;;;11.23;100.00;101428.59;10384072;28;20080;-73
2023/05/10 21:48:19;;;;;;;29.48;15.45;;;;;;;11.17;100.00;101415.78;10359934;28;20041;-70
2023/05/10 21:53:21;;;;;;;25.92;12.98;;;;;;;11.22;100.00;101423.31;10383595;28;20032;-73
2023/05/10 21:58:21;;;;;;;22.58;12.48;;;;;;;11.19;100.00;101432.09;10400677;28;20040;-72
2023/05/10 22:03:22;;;;;;;23.95;13.90;;;;;;;11.24;100.00;101429.44;10399560;28;20044;-73
2023/05/10 22:08:23;;;;;;;24.77;14.80;;;;;;;11.20;100.00;101433.75;10399184;28;20045;-73
2023/05/10 22:13:23;;;;;;;26.92;16.23;;;;;;;11.20;100.00;101434.59;10383152;28;20032;-73
2023/05/10 22:18:24;;;;;;;34.60;17.98;;;;;;;11.21;100.00;101432.69;10398726;28;20033;-75
2023/05/10 22:23:24;;;;;;;50.28;24.27;;;;;;;11.24;100.00;101437.69;10366029;28;20037;-72
2023/05/10 22:28:25;;;;;;;50.88;25.00;;;;;;;11.20;100.00;101436.50;10350674;28;20033;-73
2023/05/10 22:33:26;;;;;;;50.30;24.17;;;;;;;11.21;100.00;101452.81;10382843;28;20042;-72